Time;durP1;ratioP1;P1;durP2;ratioP2;P2;SDS_P1;SDS_P2;PMS_P1;PMS_P2;Temp;Humidity;BMP_temperature;BMP_pressure;BME280_temperature;BME280_humidity;BME280_pressure;Samples;Min_cycle;Max_cycle;Signal;HPM_P1;HPM_P2
2022/01/07 00:01:32;;;;;;;20.70;10.25;;;1.70;80.70;;;;;;4998032;28;20056;-67
2022/01/07 00:03:58;;;;;;;27.52;11.27;;;1.70;80.90;;;;;;5007027;28;20525;-66
2022/01/07 00:06:23;;;;;;;25.55;10.88;;;1.70;81.00;;;;;;5004241;28;20104;-67
2022/01/07 00:08:49;;;;;;;29.73;11.13;;;1.70;81.00;;;;;;5000085;28;20041;-67
2022/01/07 00:11:15;;;;;;;18.70;10.60;;;1.70;81.00;;;;;;4993542;28;20033;-66
2022/01/07 00:13:40;;;;;;;20.90;10.88;;;1.60;81.10;;;;;;4996269;28;20029;-68
2022/01/07 00:16:07;;;;;;;18.05;10.63;;;1.60;81.20;;;;;;4994138;28;20128;-67
2022/01/07 00:18:34;;;;;;;21.35;10.88;;;1.60;82.10;;;;;;4993389;28;20106;-68
2022/01/07 00:20:59;;;;;;;19.65;10.93;;;1.60;81.40;;;;;;4993906;28;20709;-68
2022/01/07 00:23:25;;;;;;;19.90;11.35;;;1.60;81.40;;;;;;5004578;28;20133;-67
2022/01/07 00:25:52;;;;;;;20.85;11.13;;;1.60;81.60;;;;;;4995650;28;20041;-67
2022/01/07 00:28:18;;;;;;;20.67;11.32;;;1.70;81.60;;;;;;4994917;28;20034;-67
2022/01/07 00:30:44;;;;;;;21.33;10.68;;;1.70;81.70;;;;;;4995334;28;20172;-68
2022/01/07 00:33:10;;;;;;;25.70;11.65;;;1.70;81.60;;;;;;5002596;28;20037;-67
2022/01/07 00:35:36;;;;;;;20.00;10.80;;;1.70;81.60;;;;;;4998990;28;20034;-67
2022/01/07 00:38:02;;;;;;;18.30;10.63;;;1.70;81.60;;;;;;4993616;28;20049;-67
2022/01/07 00:40:28;;;;;;;22.95;11.50;;;1.70;82.30;;;;;;4998156;28;20034;-68
2022/01/07 00:42:54;;;;;;;18.52;10.52;;;1.80;81.40;;;;;;5001265;28;20485;-68
2022/01/07 00:45:22;;;;;;;19.05;10.77;;;1.70;81.30;;;;;;4997441;28;20143;-67
2022/01/07 00:47:48;;;;;;;21.13;10.18;;;1.70;81.40;;;;;;5003055;28;20041;-68
2022/01/07 00:50:15;;;;;;;18.70;10.30;;;1.80;81.40;;;;;;4995264;28;20902;-68
2022/01/07 00:52:42;;;;;;;16.85;9.88;;;1.80;81.30;;;;;;4999386;28;20548;-67
2022/01/07 00:55:09;;;;;;;19.63;10.20;;;1.80;81.20;;;;;;4997698;28;20026;-67
2022/01/07 00:57:35;;;;;;;18.75;9.80;;;1.80;81.20;;;;;;4995211;28;20022;-67
2022/01/07 01:00:03;;;;;;;18.35;10.85;;;1.80;81.10;;;;;;4992548;28;20072;-68
2022/01/07 01:02:28;;;;;;;19.75;11.18;;;1.80;81.20;;;;;;5005589;28;20088;-68
2022/01/07 01:04:54;;;;;;;20.92;10.93;;;1.80;81.10;;;;;;5000671;28;20054;-68
2022/01/07 01:07:20;;;;;;;19.70;10.85;;;1.80;81.10;;;;;;4998120;28;20030;-67
2022/01/07 01:09:46;;;;;;;17.20;9.23;;;1.80;81.10;;;;;;4997571;28;20470;-68
2022/01/07 01:12:12;;;;;;;17.40;9.48;;;1.80;81.00;;;;;;4998670;28;20060;-68
2022/01/07 01:14:39;;;;;;;18.15;9.43;;;1.90;81.10;;;;;;4998553;28;20128;-68
2022/01/07 01:17:05;;;;;;;16.67;9.43;;;1.90;80.80;;;;;;4999125;28;20034;-68
2022/01/07 01:19:30;;;;;;;19.65;9.43;;;1.90;80.80;;;;;;5003778;28;20042;-67
2022/01/07 01:21:56;;;;;;;21.63;10.05;;;1.90;80.90;;;;;;5005438;28;20045;-68
2022/01/07 01:24:22;;;;;;;20.67;10.60;;;1.90;80.90;;;;;;5005947;28;20041;-68
2022/01/07 01:26:48;;;;;;;18.30;10.52;;;1.90;81.00;;;;;;5000383;28;20038;-68
2022/01/07 01:29:14;;;;;;;17.65;9.93;;;1.90;80.90;;;;;;5008651;28;20408;-67
2022/01/07 01:31:39;;;;;;;15.95;9.18;;;1.90;80.90;;;;;;5004549;28;20544;-68
2022/01/07 01:34:05;;;;;;;17.13;9.10;;;1.90;80.70;;;;;;5006177;28;20049;-68
2022/01/07 01:36:31;;;;;;;17.25;9.25;;;1.90;80.80;;;;;;4997821;28;20493;-68
2022/01/07 01:38:57;;;;;;;20.13;10.43;;;1.90;80.80;;;;;;5003742;28;20053;-68
2022/01/07 01:41:23;;;;;;;18.02;9.80;;;1.90;80.90;;;;;;5003426;28;20034;-67
2022/01/07 01:43:50;;;;;;;21.60;10.60;;;1.90;80.80;;;;;;5006225;28;20554;-67
2022/01/07 01:46:17;;;;;;;20.73;10.13;;;1.90;80.80;;;;;;5000021;28;20041;-67
2022/01/07 01:48:43;;;;;;;22.45;10.77;;;1.90;80.80;;;;;;5001576;28;20034;-66
2022/01/07 01:51:09;;;;;;;22.58;10.48;;;1.90;80.80;;;;;;4996354;28;20034;-68
2022/01/07 01:53:35;;;;;;;21.88;10.98;;;1.90;80.70;;;;;;4997039;28;20037;-68
2022/01/07 01:56:00;;;;;;;22.60;11.80;;;1.90;80.60;;;;;;5000944;28;20034;-68
2022/01/07 01:58:26;;;;;;;21.25;11.52;;;1.80;80.50;;;;;;5002468;28;20304;-67
2022/01/07 02:00:52;;;;;;;23.48;12.27;;;1.80;80.60;;;;;;5000152;28;20042;-68
2022/01/07 02:03:17;;;;;;;24.77;12.25;;;1.80;81.40;;;;;;5003117;28;20042;-68
2022/01/07 02:05:45;;;;;;;25.52;11.77;;;1.70;80.70;;;;;;5006655;28;20065;-67
2022/01/07 02:08:11;;;;;;;22.98;11.85;;;1.70;80.70;;;;;;4997004;28;20034;-67
2022/01/07 02:10:36;;;;;;;24.33;11.90;;;1.70;80.60;;;;;;4995290;28;20052;-65
2022/01/07 02:13:02;;;;;;;22.30;11.38;;;1.70;80.70;;;;;;4998273;28;20050;-67
2022/01/07 02:15:28;;;;;;;25.85;12.02;;;1.70;80.50;;;;;;5000827;28;20049;-67
2022/01/07 02:17:54;;;;;;;23.10;11.50;;;1.70;80.60;;;;;;5004246;28;20041;-67
2022/01/07 02:20:22;;;;;;;20.00;10.35;;;1.70;80.60;;;;;;5000072;28;20061;-67
2022/01/07 02:22:48;;;;;;;20.77;10.82;;;1.60;80.60;;;;;;4999216;28;20046;-67
2022/01/07 02:25:14;;;;;;;20.95;11.10;;;1.60;80.60;;;;;;4998284;28;20087;-67
2022/01/07 02:27:42;;;;;;;19.35;10.25;;;1.60;80.70;;;;;;4999632;28;20681;-67
2022/01/07 02:30:11;;;;;;;17.67;10.15;;;1.50;80.60;;;;;;5000419;28;20042;-64
2022/01/07 02:32:37;;;;;;;21.30;11.07;;;1.50;80.60;;;;;;5005662;28;20095;-67
2022/01/07 02:35:04;;;;;;;21.40;10.95;;;1.40;80.50;;;;;;5000159;28;20037;-67
2022/01/07 02:37:30;;;;;;;19.55;10.57;;;1.40;80.70;;;;;;4999030;28;20036;-68
2022/01/07 02:39:56;;;;;;;18.00;9.75;;;1.40;80.90;;;;;;4997364;28;20498;-67
2022/01/07 02:42:22;;;;;;;19.77;10.25;;;1.30;80.80;;;;;;5005119;28;20030;-67
2022/01/07 02:44:47;;;;;;;16.27;9.48;;;1.30;80.90;;;;;;4997574;28;20046;-68
2022/01/07 02:47:13;;;;;;;17.75;10.23;;;1.30;80.90;;;;;;5003062;28;20512;-67
2022/01/07 02:49:39;;;;;;;16.83;9.40;;;1.30;80.90;;;;;;5000079;28;20678;-67
2022/01/07 02:52:04;;;;;;;18.00;10.18;;;1.30;80.90;;;;;;5002177;28;20049;-67
2022/01/07 02:54:30;;;;;;;18.30;9.90;;;1.20;80.90;;;;;;4998908;28;20054;-66
2022/01/07 02:56:56;;;;;;;16.40;9.38;;;1.20;81.00;;;;;;4999307;28;20425;-67
2022/01/07 02:59:22;;;;;;;17.27;9.65;;;1.20;81.10;;;;;;4999251;28;20046;-67
2022/01/07 03:01:47;;;;;;;17.13;10.05;;;1.20;81.20;;;;;;5010900;28;20042;-67
2022/01/07 03:04:14;;;;;;;15.45;8.65;;;1.20;81.30;;;;;;5002377;28;20139;-68
2022/01/07 03:06:40;;;;;;;13.23;8.38;;;1.20;81.20;;;;;;5002486;28;20054;-68
2022/01/07 03:09:07;;;;;;;15.70;9.25;;;1.10;81.10;;;;;;4999714;28;20034;-67
2022/01/07 03:11:33;;;;;;;16.20;8.45;;;1.10;81.20;;;;;;4995541;28;20177;-67
2022/01/07 03:13:58;;;;;;;16.92;9.60;;;1.10;81.20;;;;;;4998959;28;20125;-67
2022/01/07 03:16:24;;;;;;;14.05;8.38;;;1.10;81.20;;;;;;5001350;28;20130;-69
2022/01/07 03:18:53;;;;;;;15.02;9.07;;;1.10;81.10;;;;;;5005371;28;20492;-66
2022/01/07 03:21:18;;;;;;;14.30;8.30;;;1.10;80.90;;;;;;4997334;28;20045;-66
2022/01/07 03:23:45;;;;;;;13.65;7.90;;;1.10;80.80;;;;;;5001333;28;20040;-67
2022/01/07 03:26:11;;;;;;;15.05;8.68;;;1.10;80.70;;;;;;4998283;28;20049;-68
2022/01/07 03:28:38;;;;;;;14.23;9.00;;;1.10;80.60;;;;;;5000596;28;20036;-68
2022/01/07 03:31:07;;;;;;;16.27;8.80;;;1.00;80.70;;;;;;4997262;28;20691;-67
2022/01/07 03:33:33;;;;;;;15.85;8.43;;;1.00;80.90;;;;;;5002240;28;20046;-68
2022/01/07 03:35:59;;;;;;;14.63;7.97;;;1.00;80.90;;;;;;5002761;28;20045;-67
2022/01/07 03:38:24;;;;;;;16.85;8.73;;;0.90;80.90;;;;;;4998159;28;20672;-67
2022/01/07 03:40:50;;;;;;;13.88;7.65;;;0.90;80.90;;;;;;4995439;28;20041;-67
2022/01/07 03:43:16;;;;;;;14.05;8.60;;;0.90;80.70;;;;;;4993473;28;20099;-68
2022/01/07 03:45:42;;;;;;;13.85;7.82;;;0.90;80.70;;;;;;4997977;28;20132;-68
2022/01/07 03:48:07;;;;;;;12.00;7.72;;;0.90;80.60;;;;;;4993552;28;20076;-67
2022/01/07 03:50:33;;;;;;;11.93;7.45;;;0.90;80.60;;;;;;5000037;28;20053;-67
2022/01/07 03:53:00;;;;;;;12.35;7.35;;;0.90;80.60;;;;;;4999630;28;20044;-67
2022/01/07 03:55:28;;;;;;;12.38;7.13;;;0.80;80.50;;;;;;4999608;28;20504;-67
2022/01/07 03:57:54;;;;;;;13.90;8.20;;;0.80;80.60;;;;;;5001298;28;20405;-67
2022/01/07 04:00:27;;;;;;;12.23;7.18;;;0.80;80.60;;;;;;4998255;28;20026;-65
2022/01/07 04:02:53;;;;;;;13.68;7.82;;;0.80;80.60;;;;;;5002301;28;20038;-67
2022/01/07 04:05:22;;;;;;;13.25;7.38;;;0.80;80.40;;;;;;4998970;28;20034;-67
2022/01/07 04:07:48;;;;;;;13.00;7.50;;;0.80;80.40;;;;;;5005434;28;20103;-68
2022/01/07 04:10:13;;;;;;;14.07;7.60;;;0.80;80.40;;;;;;4997840;28;20091;-67
2022/01/07 04:12:39;;;;;;;12.68;7.35;;;0.70;80.40;;;;;;4992214;28;20041;-68
2022/01/07 04:15:08;;;;;;;17.33;7.88;;;0.70;80.40;;;;;;4997211;28;20033;-67
2022/01/07 04:17:40;;;;;;;15.32;8.13;;;0.70;80.50;;;;;;5001621;28;20029;-67
2022/01/07 04:20:08;;;;;;;13.00;7.32;;;0.70;80.60;;;;;;5002898;28;20121;-67
2022/01/07 04:22:34;;;;;;;14.93;7.90;;;0.70;80.60;;;;;;5003866;28;20030;-67
2022/01/07 04:25:01;;;;;;;14.35;7.68;;;0.60;80.60;;;;;;4996254;28;20038;-67
2022/01/07 04:27:27;;;;;;;14.90;7.57;;;0.60;80.80;;;;;;4992802;28;20133;-68
2022/01/07 04:29:53;;;;;;;16.35;8.38;;;0.70;80.90;;;;;;4992801;28;20128;-68
2022/01/07 04:32:18;;;;;;;16.58;8.30;;;0.60;80.90;;;;;;4996882;28;20416;-67
2022/01/07 04:34:44;;;;;;;17.17;8.65;;;0.60;81.20;;;;;;4999954;28;20104;-68
2022/01/07 04:37:10;;;;;;;17.50;8.57;;;0.60;81.30;;;;;;5003849;28;20033;-68
2022/01/07 04:39:36;;;;;;;16.20;8.77;;;0.60;81.40;;;;;;4996496;28;20041;-67
2022/01/07 04:42:02;;;;;;;13.93;7.95;;;0.60;82.30;;;;;;4996684;28;20048;-67
2022/01/07 04:44:28;;;;;;;13.95;7.82;;;0.60;81.40;;;;;;4999028;28;20052;-67
2022/01/07 04:46:53;;;;;;;13.98;7.30;;;0.60;81.30;;;;;;5002513;28;20034;-67
2022/01/07 04:49:19;;;;;;;15.77;8.65;;;0.60;81.40;;;;;;4997627;28;20129;-68
2022/01/07 04:51:44;;;;;;;16.42;7.97;;;0.60;81.40;;;;;;4992187;28;20119;-67
2022/01/07 04:54:10;;;;;;;16.92;9.02;;;0.60;81.30;;;;;;4995403;28;20079;-67
2022/01/07 04:56:36;;;;;;;15.45;8.95;;;0.60;81.30;;;;;;4991746;28;20037;-68
2022/01/07 04:59:01;;;;;;;16.77;8.85;;;0.60;81.40;;;;;;4993307;28;20429;-68
2022/01/07 05:01:27;;;;;;;25.90;11.95;;;0.60;81.50;;;;;;4993710;28;20041;-68
2022/01/07 05:03:52;;;;;;;24.77;12.80;;;0.70;81.80;;;;;;5002151;28;20048;-67
2022/01/07 05:08:50;;;;;;;19.70;11.07;;;0.70;81.90;;;;;;4998334;28;20034;-67
2022/01/07 05:11:16;;;;;;;16.27;9.52;;;0.80;81.90;;;;;;4991136;28;20040;-68
2022/01/07 05:13:41;;;;;;;17.20;9.43;;;0.80;81.70;;;;;;4997309;28;20118;-67
2022/01/07 05:16:07;;;;;;;17.95;9.63;;;0.80;81.50;;;;;;4994905;28;20042;-68
2022/01/07 05:18:33;;;;;;;17.25;9.38;;;0.80;81.40;;;;;;4996374;28;20460;-68
2022/01/07 05:20:58;;;;;;;16.58;9.75;;;0.80;81.40;;;;;;5001005;28;20058;-67
2022/01/07 05:23:24;;;;;;;16.40;9.48;;;0.80;81.30;;;;;;5003296;28;20030;-67
2022/01/07 05:25:50;;;;;;;17.42;9.80;;;0.80;81.30;;;;;;4997822;28;20049;-68
2022/01/07 05:28:16;;;;;;;16.35;9.63;;;0.90;81.40;;;;;;4999123;28;20042;-68
2022/01/07 05:30:42;;;;;;;16.60;9.57;;;0.90;81.40;;;;;;4998999;28;20062;-67
2022/01/07 05:33:08;;;;;;;15.73;9.13;;;0.90;81.40;;;;;;5001230;28;20038;-67
2022/01/07 05:35:34;;;;;;;14.57;9.07;;;0.90;81.50;;;;;;4998970;28;20616;-68
2022/01/07 05:37:59;;;;;;;14.07;9.20;;;0.90;81.60;;;;;;5005004;28;20460;-67
2022/01/07 05:40:25;;;;;;;16.45;9.73;;;1.00;81.60;;;;;;4999028;28;20803;-68
2022/01/07 05:42:50;;;;;;;17.42;10.27;;;1.00;81.50;;;;;;4997235;28;20124;-68
2022/01/07 05:45:16;;;;;;;16.35;9.32;;;1.00;82.30;;;;;;4999502;28;20126;-68
2022/01/07 05:47:42;;;;;;;14.05;8.85;;;1.10;81.40;;;;;;5000434;28;20037;-67
2022/01/07 05:50:08;;;;;;;17.08;9.77;;;1.10;81.40;;;;;;5003724;28;20524;-67
2022/01/07 05:52:34;;;;;;;14.05;9.07;;;1.10;81.30;;;;;;5003535;28;20041;-67
2022/01/07 05:55:00;;;;;;;13.63;9.32;;;1.10;81.20;;;;;;5005931;28;20034;-67
2022/01/07 05:57:27;;;;;;;16.67;10.48;;;1.20;81.20;;;;;;4999903;28;20034;-67
2022/01/07 05:59:53;;;;;;;15.80;8.88;;;1.20;81.10;;;;;;5006280;28;20116;-67
2022/01/07 06:02:19;;;;;;;15.48;9.20;;;1.20;81.10;;;;;;4997370;28;20168;-67
2022/01/07 06:04:44;;;;;;;15.05;9.10;;;1.20;81.10;;;;;;4997690;28;20129;-67
2022/01/07 06:07:10;;;;;;;12.70;8.80;;;1.20;81.10;;;;;;5003642;28;20026;-68
2022/01/07 06:09:35;;;;;;;14.35;9.30;;;1.20;81.10;;;;;;5002767;28;20065;-67
2022/01/07 06:12:01;;;;;;;13.60;9.20;;;1.30;81.10;;;;;;4998321;28;20048;-68
2022/01/07 06:14:28;;;;;;;13.88;9.43;;;1.30;81.10;;;;;;4997425;28;20042;-68
2022/01/07 06:16:54;;;;;;;16.25;9.63;;;1.30;81.10;;;;;;5007410;28;20050;-67
2022/01/07 06:19:22;;;;;;;16.38;9.65;;;1.30;81.10;;;;;;4997736;28;20034;-67
2022/01/07 06:21:50;;;;;;;15.25;9.63;;;1.30;81.10;;;;;;5005961;28;20069;-68
2022/01/07 06:24:15;;;;;;;18.15;9.52;;;1.40;81.10;;;;;;5002663;28;20034;-67
2022/01/07 06:26:41;;;;;;;18.65;10.93;;;1.40;81.00;;;;;;4994958;28;20407;-68
2022/01/07 06:29:07;;;;;;;15.75;9.63;;;1.40;81.00;;;;;;5003171;28;20042;-67
2022/01/07 06:31:35;;;;;;;14.93;10.48;;;1.40;80.90;;;;;;5001578;28;20663;-69
2022/01/07 06:34:02;;;;;;;19.80;10.27;;;1.40;80.70;;;;;;4993951;28;20088;-67
2022/01/07 06:36:29;;;;;;;17.48;11.10;;;1.40;80.70;;;;;;4996516;28;20113;-68
2022/01/07 06:38:55;;;;;;;16.27;10.60;;;1.40;80.80;;;;;;4993377;28;20025;-67
2022/01/07 06:41:21;;;;;;;19.83;10.23;;;1.50;80.80;;;;;;4996544;28;20400;-67
2022/01/07 06:43:46;;;;;;;15.52;10.20;;;1.50;80.80;;;;;;4996052;28;20538;-67
2022/01/07 06:46:13;;;;;;;17.42;10.23;;;1.50;80.70;;;;;;4992795;28;20049;-67
2022/01/07 06:48:40;;;;;;;16.70;10.55;;;1.50;80.70;;;;;;4993189;28;20809;-66
2022/01/07 06:51:06;;;;;;;15.65;10.75;;;1.50;80.70;;;;;;4994139;28;20041;-67
2022/01/07 06:53:33;;;;;;;14.93;9.23;;;1.60;80.70;;;;;;4993068;28;20038;-66
2022/01/07 06:55:59;;;;;;;14.43;10.30;;;1.60;80.60;;;;;;4996298;28;20588;-68
2022/01/07 06:58:25;;;;;;;16.70;10.07;;;1.60;80.60;;;;;;4993563;28;20083;-68
2022/01/07 07:00:51;;;;;;;18.75;10.45;;;1.60;80.50;;;;;;4993369;28;20042;-68
2022/01/07 07:03:17;;;;;;;18.63;10.38;;;1.60;80.40;;;;;;4993991;28;20030;-67
2022/01/07 07:05:42;;;;;;;15.02;10.02;;;1.60;80.30;;;;;;4994358;28;20040;-68
2022/01/07 07:08:08;;;;;;;14.68;9.70;;;1.60;80.20;;;;;;4994530;28;20042;-66
2022/01/07 07:10:34;;;;;;;16.33;10.10;;;1.60;80.00;;;;;;4992363;28;20041;-67
2022/01/07 07:12:59;;;;;;;16.58;9.30;;;1.60;80.00;;;;;;4994070;28;20041;-67
2022/01/07 07:15:25;;;;;;;15.95;9.57;;;1.60;79.90;;;;;;4995785;28;20054;-67
2022/01/07 07:17:51;;;;;;;18.00;9.73;;;1.60;79.80;;;;;;4994514;28;20054;-67
2022/01/07 07:20:16;;;;;;;14.75;10.07;;;1.60;79.70;;;;;;4995457;28;20030;-67
2022/01/07 07:22:42;;;;;;;15.73;10.02;;;1.60;79.90;;;;;;4997030;28;20472;-66
2022/01/07 07:25:08;;;;;;;12.35;9.18;;;1.60;79.70;;;;;;4987200;28;20038;-67
2022/01/07 07:27:37;;;;;;;15.75;9.63;;;1.60;79.60;;;;;;4989746;28;20111;-67
2022/01/07 07:30:08;;;;;;;14.65;9.63;;;1.60;79.80;;;;;;4993763;28;20026;-68
2022/01/07 07:32:35;;;;;;;14.43;9.68;;;1.60;79.80;;;;;;4998444;28;20034;-68
2022/01/07 07:35:12;;;;;;;15.98;9.50;;;1.70;79.90;;;;;;4999785;28;20464;-68
2022/01/07 07:37:38;;;;;;;15.32;9.43;;;1.70;79.90;;;;;;5000435;28;20509;-66
2022/01/07 07:40:04;;;;;;;13.20;8.77;;;1.70;79.80;;;;;;4997275;28;20026;-68
2022/01/07 07:42:30;;;;;;;13.70;9.35;;;1.80;79.70;;;;;;4999307;28;20112;-68
2022/01/07 07:44:59;;;;;;;15.65;9.55;;;1.80;79.70;;;;;;5000283;28;20053;-68
2022/01/07 07:47:24;;;;;;;12.85;8.85;;;1.80;79.60;;;;;;5000676;28;20169;-68
2022/01/07 07:49:50;;;;;;;15.23;9.48;;;1.80;79.50;;;;;;4999819;28;20033;-68
2022/01/07 07:52:16;;;;;;;13.23;9.18;;;1.90;79.50;;;;;;5001529;28;20079;-68
2022/01/07 07:54:44;;;;;;;18.08;11.63;;;1.90;79.30;;;;;;4999004;28;20052;-68
2022/01/07 07:57:15;;;;;;;16.25;10.15;;;1.90;79.20;;;;;;4998800;28;20084;-68
2022/01/07 07:59:41;;;;;;;16.77;10.30;;;1.90;79.00;;;;;;4998943;28;20026;-69
2022/01/07 08:02:09;;;;;;;15.60;10.50;;;1.90;79.00;;;;;;4995613;28;20025;-67
2022/01/07 08:04:37;;;;;;;13.90;9.25;;;1.90;79.00;;;;;;5000318;28;20043;-69
2022/01/07 08:07:03;;;;;;;13.23;9.52;;;1.90;79.20;;;;;;4995264;28;20049;-68
2022/01/07 08:09:33;;;;;;;14.95;9.43;;;1.90;79.20;;;;;;5000249;28;20038;-66
2022/01/07 08:12:05;;;;;;;13.23;9.05;;;1.90;79.10;;;;;;4994825;28;20055;-67
2022/01/07 08:17:15;;;;;;;13.75;8.35;;;1.90;79.00;;;;;;5000980;28;20741;-68
2022/01/07 08:19:41;;;;;;;17.60;10.02;;;1.90;78.80;;;;;;5000530;28;20042;-68
2022/01/07 08:22:08;;;;;;;17.67;9.73;;;1.90;78.80;;;;;;4999491;28;20527;-69
2022/01/07 08:24:34;;;;;;;13.43;8.40;;;1.80;78.60;;;;;;5000772;28;20030;-68
2022/01/07 08:27:01;;;;;;;15.20;8.93;;;1.80;78.30;;;;;;5000947;28;20111;-68
2022/01/07 08:29:31;;;;;;;19.40;11.20;;;1.80;78.30;;;;;;4999971;28;20037;-69
2022/01/07 08:34:54;;;;;;;16.77;9.68;;;1.80;78.30;;;;;;5002817;28;20515;-69
2022/01/07 08:37:28;;;;;;;16.38;9.43;;;1.80;78.30;;;;;;4996694;28;20038;-69
2022/01/07 08:39:55;;;;;;;14.80;9.27;;;1.80;78.30;;;;;;5000439;28;20072;-68
2022/01/07 08:42:25;;;;;;;14.50;8.43;;;1.80;78.40;;;;;;5002099;28;20042;-69
2022/01/07 08:44:52;;;;;;;10.57;7.32;;;1.80;78.40;;;;;;4999156;28;20108;-68
2022/01/07 08:47:20;;;;;;;13.98;7.55;;;1.80;78.50;;;;;;5001962;28;20116;-70
2022/01/07 08:49:47;;;;;;;17.27;11.60;;;1.80;78.50;;;;;;4999463;28;20030;-68
2022/01/07 08:52:14;;;;;;;12.95;8.13;;;1.80;78.30;;;;;;4999165;28;20030;-68
2022/01/07 08:54:39;;;;;;;12.90;8.35;;;1.80;78.20;;;;;;4991912;28;20045;-68
2022/01/07 08:57:05;;;;;;;11.25;7.88;;;1.80;78.20;;;;;;4999820;28;20378;-69
2022/01/07 08:59:31;;;;;;;15.93;10.07;;;1.80;78.10;;;;;;5000818;28;20030;-68
2022/01/07 09:01:56;;;;;;;10.93;7.55;;;1.90;78.40;;;;;;4994794;28;20052;-68
2022/01/07 09:04:23;;;;;;;10.85;7.65;;;1.90;78.40;;;;;;5001171;28;20413;-68
2022/01/07 09:06:48;;;;;;;10.52;7.72;;;1.90;78.30;;;;;;4995278;28;20523;-67
2022/01/07 09:09:14;;;;;;;10.60;7.78;;;1.90;78.10;;;;;;5001181;28;20038;-68
2022/01/07 09:11:40;;;;;;;10.45;8.25;;;1.90;78.10;;;;;;4998372;28;20034;-68
2022/01/07 09:14:05;;;;;;;11.82;8.50;;;1.90;78.10;;;;;;5002795;28;20117;-68
2022/01/07 09:16:31;;;;;;;12.65;8.38;;;1.90;78.10;;;;;;5001883;28;20033;-68
2022/01/07 09:18:57;;;;;;;12.18;8.07;;;2.00;78.20;;;;;;5000736;28;20034;-68
2022/01/07 09:21:22;;;;;;;12.18;8.25;;;1.90;78.30;;;;;;5001109;28;20120;-69
2022/01/07 09:23:48;;;;;;;12.40;8.65;;;2.00;78.40;;;;;;5005366;28;20030;-67
2022/01/07 09:26:14;;;;;;;15.55;10.15;;;2.00;78.30;;;;;;5004408;28;20034;-69
2022/01/07 09:28:40;;;;;;;17.02;11.32;;;2.00;78.30;;;;;;5007004;28;20041;-68
2022/01/07 09:31:06;;;;;;;16.17;10.50;;;2.00;78.30;;;;;;5003486;28;20559;-68
2022/01/07 09:33:32;;;;;;;15.60;9.07;;;2.00;78.30;;;;;;5002391;28;20449;-68
2022/01/07 09:35:58;;;;;;;14.07;9.85;;;2.10;78.30;;;;;;5003502;28;20045;-68
2022/01/07 09:38:26;;;;;;;14.98;9.93;;;2.10;78.30;;;;;;5003968;28;20088;-68
2022/01/07 09:40:51;;;;;;;13.88;9.10;;;2.10;78.30;;;;;;5002343;28;20422;-67
2022/01/07 09:43:17;;;;;;;16.92;10.35;;;2.10;78.20;;;;;;5003993;28;20048;-67
2022/01/07 09:45:43;;;;;;;14.98;10.30;;;2.20;78.20;;;;;;5004673;28;20121;-68
2022/01/07 09:48:09;;;;;;;16.55;10.40;;;2.10;78.10;;;;;;5000632;28;20570;-68
2022/01/07 09:50:36;;;;;;;16.98;10.43;;;2.20;78.20;;;;;;5001879;28;20037;-68
2022/01/07 09:53:12;;;;;;;13.73;9.40;;;2.20;78.30;;;;;;5005581;28;20050;-68
2022/01/07 09:55:38;;;;;;;14.00;9.77;;;2.20;78.10;;;;;;5004882;28;20041;-69
2022/01/07 09:58:05;;;;;;;13.30;8.73;;;2.20;78.00;;;;;;5000440;28;20397;-67
2022/01/07 10:00:38;;;;;;;14.10;9.73;;;2.30;78.00;;;;;;5001604;28;20050;-68
2022/01/07 10:03:09;;;;;;;14.50;9.55;;;2.30;77.70;;;;;;5006140;28;20037;-68
2022/01/07 10:05:51;;;;;;;14.10;9.20;;;2.30;77.60;;;;;;4999058;28;20042;-68
2022/01/07 10:08:26;;;;;;;13.63;9.13;;;2.30;77.70;;;;;;5004287;28;20046;-67
2022/01/07 10:11:21;;;;;;;;;;;2.30;77.80;;;;;;4999634;28;20034;-67
2022/01/07 10:13:49;;;;;;;14.85;9.90;;;2.40;77.80;;;;;;5001239;28;19921;-68
2022/01/07 10:16:23;;;;;;;15.95;10.15;;;2.40;77.80;;;;;;5000861;28;20088;-66
2022/01/07 10:18:49;;;;;;;13.65;10.07;;;2.40;77.80;;;;;;4997040;28;20047;-67
2022/01/07 10:21:16;;;;;;;14.98;9.73;;;2.40;77.80;;;;;;5005171;28;20042;-68
2022/01/07 10:23:44;;;;;;;14.35;9.65;;;2.40;78.80;;;;;;5004041;28;20042;-68
2022/01/07 10:26:21;;;;;;;15.10;10.15;;;2.40;78.00;;;;;;5002881;28;20034;-68
2022/01/07 10:28:49;;;;;;;17.00;9.60;;;2.40;78.00;;;;;;5002334;28;20044;-69
2022/01/07 10:31:24;;;;;;;17.88;10.60;;;2.40;78.00;;;;;;5003040;28;20049;-68
2022/01/07 10:33:50;;;;;;;14.77;9.38;;;2.40;78.00;;;;;;5005549;28;20022;-68
2022/01/07 10:36:19;;;;;;;17.90;10.60;;;2.40;78.00;;;;;;5003131;28;20053;-67
2022/01/07 10:38:53;;;;;;;15.55;9.57;;;2.40;78.10;;;;;;5000373;28;20137;-67
2022/01/07 10:41:19;;;;;;;15.90;9.95;;;2.40;78.30;;;;;;5003581;28;20113;-68
2022/01/07 10:43:45;;;;;;;12.88;9.30;;;2.40;78.10;;;;;;5000614;28;20068;-68
2022/01/07 10:46:11;;;;;;;15.65;9.43;;;2.40;78.10;;;;;;4999866;28;20181;-68
2022/01/07 10:48:42;;;;;;;13.98;9.13;;;2.40;78.30;;;;;;5001916;28;20038;-67
2022/01/07 10:51:18;;;;;;;14.68;9.07;;;2.40;78.20;;;;;;5001269;28;20030;-68
2022/01/07 10:54:10;;;;;;;14.40;9.45;;;2.40;78.30;;;;;;4996071;28;20034;-68
2022/01/07 10:56:47;;;;;;;13.82;8.73;;;2.40;78.30;;;;;;4999472;28;20030;-68
2022/01/07 10:59:17;;;;;;;16.10;9.45;;;2.40;78.40;;;;;;5012024;28;20049;-68
2022/01/07 11:01:48;;;;;;;16.27;9.38;;;2.40;78.40;;;;;;5001543;28;20113;-68
2022/01/07 11:04:19;;;;;;;15.48;9.52;;;2.40;78.50;;;;;;5004994;28;20038;-68
2022/01/07 11:06:47;;;;;;;14.98;9.55;;;2.40;78.40;;;;;;5005691;28;20042;-68
2022/01/07 11:09:14;;;;;;;14.70;9.32;;;2.40;78.40;;;;;;5005328;28;20449;-68
2022/01/07 11:11:45;;;;;;;14.40;8.63;;;2.40;79.20;;;;;;5006370;28;20048;-68
2022/01/07 11:14:14;;;;;;;14.18;9.07;;;2.50;78.50;;;;;;5006066;28;20030;-68
2022/01/07 11:16:40;;;;;;;15.75;9.18;;;2.50;78.40;;;;;;5007886;28;20037;-68
2022/01/07 11:19:08;;;;;;;12.95;8.68;;;2.50;78.30;;;;;;5006846;28;20045;-69
2022/01/07 11:21:35;;;;;;;13.63;8.55;;;2.50;78.40;;;;;;5006275;28;20030;-68
2022/01/07 11:24:34;;;;;;;13.52;8.40;;;2.50;78.30;;;;;;5007068;28;20479;-69
2022/01/07 11:27:05;;;;;;;12.48;8.02;;;2.60;78.00;;;;;;4998892;28;20034;-69
2022/01/07 11:29:31;;;;;;;12.93;8.13;;;2.60;78.10;;;;;;5007009;28;20344;-69
2022/01/07 11:32:26;;;;;;;12.45;8.10;;;2.60;78.10;;;;;;5005907;28;20517;-69
2022/01/07 11:35:16;;;;;;;13.80;8.13;;;2.70;78.00;;;;;;5005392;28;20038;-69
2022/01/07 11:37:43;;;;;;;12.82;8.45;;;2.70;78.00;;;;;;5007771;28;20445;-69
2022/01/07 11:40:09;;;;;;;13.27;8.25;;;2.70;78.10;;;;;;5004767;28;20418;-69
2022/01/07 11:42:52;;;;;;;12.57;7.47;;;2.80;78.00;;;;;;5008032;28;20026;-69
2022/01/07 11:45:28;;;;;;;15.18;8.60;;;2.80;77.40;;;;;;5004952;28;20042;-69
2022/01/07 11:48:10;;;;;;;19.80;11.68;;;2.80;77.40;;;;;;5008462;28;20092;-69
2022/01/07 11:50:46;;;;;;;14.02;9.65;;;2.90;77.40;;;;;;5005587;28;20096;-69
2022/01/07 11:53:13;;;;;;;13.63;8.40;;;2.90;77.30;;;;;;5005844;28;20456;-70
2022/01/07 11:55:40;;;;;;;12.98;8.05;;;2.90;77.20;;;;;;5006060;28;20400;-69
2022/01/07 11:58:11;;;;;;;13.05;8.25;;;2.90;77.10;;;;;;5006258;28;20058;-69
2022/01/07 12:01:00;;;;;;;11.65;7.53;;;2.90;77.10;;;;;;5005241;28;20030;-69
2022/01/07 12:03:39;;;;;;;12.55;7.68;;;2.90;76.90;;;;;;5006760;28;20673;-70
2022/01/07 12:06:23;;;;;;;11.13;7.63;;;2.90;77.00;;;;;;5007196;28;20432;-69
2022/01/07 12:09:05;;;;;;;12.60;8.38;;;2.90;76.80;;;;;;5005756;28;20030;-69
2022/01/07 12:11:33;;;;;;;12.77;8.68;;;3.00;76.90;;;;;;5005344;28;20050;-69
2022/01/07 12:14:01;;;;;;;11.32;7.72;;;3.00;77.10;;;;;;5004758;28;20042;-69
2022/01/07 12:16:31;;;;;;;10.68;7.20;;;3.00;76.90;;;;;;5004479;28;20070;-69
2022/01/07 12:19:12;;;;;;;12.63;7.32;;;3.00;76.70;;;;;;5006410;28;20189;-70
2022/01/07 12:21:39;;;;;;;14.23;9.07;;;3.00;76.70;;;;;;5004042;28;20608;-69
2022/01/07 12:24:06;;;;;;;12.23;7.80;;;3.00;76.80;;;;;;5006770;28;20064;-69
2022/01/07 12:26:32;;;;;;;12.40;8.02;;;3.00;76.90;;;;;;5004648;28;20569;-69
2022/01/07 12:28:58;;;;;;;13.50;8.30;;;3.00;77.00;;;;;;5002551;28;20042;-69
2022/01/07 12:31:24;;;;;;;11.75;7.60;;;3.00;77.10;;;;;;5004631;28;20041;-69
2022/01/07 12:33:54;;;;;;;12.25;6.90;;;2.90;77.20;;;;;;5006064;28;20563;-69
2022/01/07 12:36:26;;;;;;;12.05;7.13;;;2.90;77.40;;;;;;5005109;28;20038;-69
2022/01/07 12:39:03;;;;;;;10.43;7.00;;;2.90;77.60;;;;;;5004767;28;20097;-69
2022/01/07 12:41:29;;;;;;;9.90;6.75;;;2.90;77.80;;;;;;5003025;28;20050;-69
2022/01/07 12:44:13;;;;;;;13.55;7.18;;;2.90;77.80;;;;;;5005666;28;20778;-68
2022/01/07 12:46:40;;;;;;;10.60;7.38;;;2.90;78.20;;;;;;5003806;28;20099;-68
2022/01/07 12:49:08;;;;;;;11.93;7.13;;;2.90;78.10;;;;;;5004410;28;20037;-68
2022/01/07 12:51:35;;;;;;;12.07;7.75;;;2.80;78.30;;;;;;5005470;28;20050;-69
2022/01/07 12:54:03;;;;;;;13.40;7.40;;;2.90;78.50;;;;;;5004089;28;20427;-69